createdAt,value
2023-01-20T00:01:41.018Z,10.32
2023-01-20T00:04:08.263Z,11.23
2023-01-20T00:06:36.097Z,11.55
2023-01-20T00:09:05.087Z,11.75
2023-01-20T00:11:34.826Z,11.02
2023-01-20T00:14:03.030Z,12.10
2023-01-20T00:16:32.094Z,11.95
2023-01-20T00:18:59.578Z,11.70
2023-01-20T00:21:27.033Z,12.88
2023-01-20T00:23:57.081Z,12.48
2023-01-20T00:26:27.539Z,12.65
2023-01-20T00:28:56.146Z,11.68
2023-01-20T00:31:31.330Z,10.60
2023-01-20T00:34:02.618Z,10.77
2023-01-20T00:36:32.425Z,10.15
2023-01-20T00:39:01.365Z,9.98
2023-01-20T00:41:31.135Z,9.52
2023-01-20T00:44:00.866Z,9.57
2023-01-20T00:46:33.153Z,8.77
2023-01-20T00:49:02.747Z,8.32
2023-01-20T00:51:30.149Z,7.30
2023-01-20T00:53:59.798Z,9.25
2023-01-20T00:56:27.051Z,9.40
2023-01-20T00:58:55.345Z,9.48
2023-01-20T01:01:23.726Z,9.70
2023-01-20T01:03:56.690Z,9.52
2023-01-20T01:06:24.032Z,10.43
2023-01-20T01:08:51.326Z,10.45
2023-01-20T01:11:18.649Z,10.68
2023-01-20T01:13:45.908Z,10.18
2023-01-20T01:16:15.292Z,11.13
2023-01-20T01:18:43.308Z,10.32
2023-01-20T01:21:13.133Z,10.20
2023-01-20T01:23:40.419Z,10.57
2023-01-20T01:26:10.779Z,10.25
2023-01-20T01:28:43.076Z,11.27
2023-01-20T01:31:10.769Z,11.98
2023-01-20T01:33:40.794Z,10.73
2023-01-20T01:36:12.663Z,10.60
2023-01-20T01:38:40.095Z,10.63
2023-01-20T01:41:07.454Z,11.80
2023-01-20T01:43:36.748Z,11.50
2023-01-20T01:46:04.718Z,10.75
2023-01-20T01:48:42.067Z,12.02
2023-01-20T01:51:23.419Z,10.40
2023-01-20T01:53:57.563Z,10.65
2023-01-20T01:56:26.395Z,11.18
2023-01-20T01:58:56.235Z,10.43
2023-01-20T02:01:24.560Z,10.57
2023-01-20T02:04:15.417Z,11.10
2023-01-20T02:07:10.356Z,11.20
2023-01-20T02:09:42.058Z,10.50
2023-01-20T02:12:13.706Z,9.60
2023-01-20T02:14:50.168Z,10.10
2023-01-20T02:17:33.720Z,9.15
2023-01-20T02:22:58.921Z,11.02
2023-01-20T02:25:47.504Z,10.13
2023-01-20T02:28:58.155Z,9.52
2023-01-20T02:31:30.980Z,11.32
2023-01-20T02:34:03.387Z,10.05
2023-01-20T02:36:45.297Z,8.90
2023-01-20T02:39:28.167Z,10.57
2023-01-20T02:42:24.491Z,10.63
2023-01-20T02:45:03.564Z,10.15
2023-01-20T02:48:03.275Z,10.25
2023-01-20T02:51:07.676Z,10.32
2023-01-20T02:53:48.433Z,9.82
2023-01-20T02:56:21.000Z,9.15
2023-01-20T02:58:53.001Z,7.28
2023-01-20T03:01:25.438Z,8.75
2023-01-20T03:03:57.125Z,7.75
2023-01-20T03:06:32.215Z,10.05
2023-01-20T03:09:02.368Z,9.77
2023-01-20T03:11:36.392Z,10.35
2023-01-20T03:14:10.905Z,9.20
2023-01-20T03:16:41.741Z,9.35
2023-01-20T03:19:10.537Z,10.02
2023-01-20T03:21:42.384Z,8.80
2023-01-20T03:24:09.931Z,9.85
2023-01-20T03:26:41.833Z,9.73
2023-01-20T03:29:15.972Z,9.93
2023-01-20T03:31:50.288Z,9.98
2023-01-20T03:34:22.010Z,9.30
2023-01-20T03:36:50.105Z,8.85
2023-01-20T03:39:17.944Z,9.50
2023-01-20T03:42:10.480Z,10.52
2023-01-20T03:45:09.443Z,9.98
2023-01-20T03:47:58.295Z,9.18
2023-01-20T03:50:40.958Z,8.77
2023-01-20T03:53:32.274Z,8.00
2023-01-20T03:56:20.580Z,10.48
2023-01-20T03:58:53.968Z,10.05
2023-01-20T04:01:25.319Z,9.32
2023-01-20T04:03:54.853Z,9.35
2023-01-20T04:06:28.024Z,9.40
2023-01-20T04:08:59.661Z,9.27
2023-01-20T04:11:29.165Z,9.75
2023-01-20T04:13:59.020Z,9.23
2023-01-20T04:16:26.998Z,9.57
2023-01-20T04:18:55.041Z,9.68
2023-01-20T04:21:38.835Z,10.07
2023-01-20T04:24:19.518Z,9.40
2023-01-20T04:26:46.962Z,8.95
2023-01-20T04:29:14.255Z,8.52
2023-01-20T04:31:43.648Z,9.88
2023-01-20T04:34:16.010Z,9.90
2023-01-20T04:36:45.456Z,10.03
2023-01-20T04:39:12.753Z,9.20
2023-01-20T04:41:40.042Z,9.98
2023-01-20T04:44:07.467Z,9.77
2023-01-20T04:46:36.836Z,9.77
2023-01-20T04:49:07.199Z,9.57
2023-01-20T04:51:34.457Z,10.38
2023-01-20T04:54:01.758Z,10.90
2023-01-20T04:56:29.032Z,9.90
2023-01-20T04:58:56.271Z,10.40
2023-01-20T05:01:28.404Z,9.77
2023-01-20T05:04:00.374Z,9.75
2023-01-20T05:06:27.736Z,10.40
2023-01-20T05:08:54.940Z,10.35
2023-01-20T05:11:22.185Z,10.00
2023-01-20T05:13:49.449Z,10.43
2023-01-20T05:16:23.924Z,10.65
2023-01-20T05:18:51.551Z,10.98
2023-01-20T05:21:20.929Z,10.23
2023-01-20T05:23:50.358Z,10.25
2023-01-20T05:26:17.658Z,9.98
2023-01-20T05:28:45.120Z,9.93
2023-01-20T05:31:12.487Z,9.95
2023-01-20T05:33:42.167Z,10.27
2023-01-20T05:36:11.019Z,10.10
2023-01-20T05:38:40.658Z,9.98
2023-01-20T05:41:09.801Z,9.65
2023-01-20T05:43:37.363Z,9.95
2023-01-20T05:46:05.793Z,10.55
2023-01-20T05:48:35.605Z,10.90
2023-01-20T05:51:05.430Z,9.85
2023-01-20T05:53:32.744Z,10.18
2023-01-20T05:56:01.804Z,10.60
2023-01-20T05:58:32.769Z,10.13
2023-01-20T06:01:08.092Z,10.68
2023-01-20T06:03:36.147Z,10.48
2023-01-20T06:06:14.375Z,9.68
2023-01-20T06:08:44.946Z,11.00
2023-01-20T06:11:14.426Z,9.90
2023-01-20T06:13:41.734Z,9.68
2023-01-20T06:16:11.756Z,9.98
2023-01-20T06:18:39.098Z,9.98
2023-01-20T06:21:06.656Z,11.02
2023-01-20T06:23:34.030Z,11.38
2023-01-20T06:26:10.754Z,11.25
2023-01-20T06:28:40.723Z,10.90
2023-01-20T06:31:15.432Z,10.65
2023-01-20T06:33:43.812Z,10.85
2023-01-20T06:36:16.924Z,11.35
2023-01-20T06:38:50.929Z,10.20
2023-01-20T06:41:20.080Z,9.95
2023-01-20T06:43:47.808Z,10.63
2023-01-20T06:46:16.021Z,10.02
2023-01-20T06:48:46.344Z,10.38
2023-01-20T06:51:16.388Z,12.05
2023-01-20T06:53:43.925Z,11.45
2023-01-20T06:56:12.905Z,10.13
2023-01-20T06:58:43.251Z,10.18
2023-01-20T07:01:21.293Z,10.52
2023-01-20T07:03:48.637Z,10.63
2023-01-20T07:06:27.184Z,10.55
2023-01-20T07:08:56.254Z,10.45
2023-01-20T07:11:28.483Z,10.43
2023-01-20T07:14:01.175Z,10.75
2023-01-20T07:16:28.635Z,11.05
2023-01-20T07:18:56.032Z,9.80
2023-01-20T07:21:26.653Z,9.68
2023-01-20T07:23:56.541Z,10.45
2023-01-20T07:26:26.528Z,9.98
2023-01-20T07:28:53.921Z,10.68
2023-01-20T07:31:24.965Z,10.50
2023-01-20T07:33:56.380Z,9.18
2023-01-20T07:36:23.987Z,10.40
2023-01-20T07:38:51.859Z,9.65
2023-01-20T07:41:22.533Z,9.52
2023-01-20T07:43:55.733Z,9.50
2023-01-20T07:46:38.126Z,9.65
2023-01-20T07:49:07.728Z,10.15
2023-01-20T07:51:37.282Z,8.77
2023-01-20T07:54:06.851Z,10.57
2023-01-20T07:56:34.425Z,10.43
2023-01-20T07:59:04.411Z,9.85
2023-01-20T08:01:37.445Z,9.88
2023-01-20T08:04:09.401Z,10.32
2023-01-20T08:06:36.832Z,11.18
2023-01-20T08:09:04.303Z,11.20
2023-01-20T08:11:34.614Z,12.05
2023-01-20T08:14:04.430Z,10.50
2023-01-20T08:16:31.680Z,11.55
2023-01-20T08:19:01.637Z,12.18
2023-01-20T08:21:33.676Z,11.15
2023-01-20T08:24:06.715Z,11.82
2023-01-20T08:26:34.217Z,11.65
2023-01-20T08:29:07.265Z,11.88
2023-01-20T08:31:38.219Z,11.65
2023-01-20T08:34:07.959Z,11.75
2023-01-20T08:36:41.880Z,10.52
2023-01-20T08:39:13.168Z,11.02
2023-01-20T08:41:43.214Z,11.55
2023-01-20T08:44:11.875Z,11.27
2023-01-20T08:46:41.706Z,10.98
2023-01-20T08:49:12.428Z,11.23
2023-01-20T08:51:43.438Z,10.80
2023-01-20T08:54:14.821Z,10.70
2023-01-20T08:56:44.561Z,10.43
2023-01-20T08:59:12.246Z,9.98
2023-01-20T09:01:43.161Z,10.60
2023-01-20T09:04:15.433Z,11.45
2023-01-20T09:06:50.215Z,10.88
2023-01-20T09:09:19.524Z,10.48
2023-01-20T09:11:51.356Z,10.10
2023-01-20T09:14:23.909Z,10.07
2023-01-20T09:16:51.504Z,10.10
2023-01-20T09:19:18.884Z,10.05
2023-01-20T09:21:46.196Z,11.02
2023-01-20T09:24:13.479Z,10.82
2023-01-20T09:26:41.236Z,10.52
2023-01-20T09:29:12.590Z,10.43
2023-01-20T09:31:45.727Z,10.50
2023-01-20T09:37:18.525Z,10.73
2023-01-20T09:40:07.573Z,10.20
2023-01-20T09:43:08.857Z,11.02
2023-01-20T09:45:58.993Z,10.27
2023-01-20T09:49:01.861Z,9.73
2023-01-20T09:52:06.675Z,9.55
2023-01-20T09:54:45.365Z,9.07
2023-01-20T09:57:17.145Z,10.52
2023-01-20T10:00:00.479Z,9.30
2023-01-20T10:02:34.968Z,9.57
2023-01-20T10:05:13.157Z,9.15
2023-01-20T10:07:51.037Z,9.38
2023-01-20T10:10:45.110Z,8.75
2023-01-20T10:13:23.286Z,8.15
2023-01-20T10:15:58.148Z,8.30
2023-01-20T10:18:43.505Z,7.60
2023-01-20T10:21:20.092Z,7.40
2023-01-20T10:23:58.676Z,7.63
2023-01-20T10:26:33.590Z,7.72
2023-01-20T10:29:05.471Z,7.50
2023-01-20T10:31:44.853Z,7.13
2023-01-20T10:34:18.932Z,7.43
2023-01-20T10:37:09.528Z,7.47
2023-01-20T10:39:56.958Z,8.05
2023-01-20T10:42:24.914Z,7.38
2023-01-20T10:44:52.831Z,6.72
2023-01-20T10:47:44.023Z,7.45
2023-01-20T10:50:19.858Z,7.50
2023-01-20T10:53:02.265Z,6.60
2023-01-20T10:55:48.200Z,7.93
2023-01-20T10:58:28.627Z,6.45
2023-01-20T11:00:57.854Z,7.07
2023-01-20T11:03:26.191Z,7.10
2023-01-20T11:05:58.068Z,6.20
2023-01-20T11:08:28.664Z,6.57
2023-01-20T11:11:25.684Z,6.30
2023-01-20T11:13:57.451Z,5.60
2023-01-20T11:16:29.039Z,5.78
2023-01-20T11:18:58.746Z,6.03
2023-01-20T11:21:28.860Z,5.38
2023-01-20T11:23:57.054Z,5.90
2023-01-20T11:26:32.029Z,6.05
2023-01-20T11:29:00.741Z,5.55
2023-01-20T11:31:50.563Z,5.88
2023-01-20T11:34:31.256Z,5.93
2023-01-20T11:37:04.727Z,5.18
2023-01-20T11:39:37.254Z,5.30
2023-01-20T11:42:24.905Z,7.47
2023-01-20T11:45:01.121Z,5.82
2023-01-20T11:47:37.513Z,5.95
2023-01-20T11:50:04.853Z,5.50
2023-01-20T11:52:44.160Z,5.63
2023-01-20T11:55:23.350Z,6.50
2023-01-20T11:57:57.928Z,5.13
2023-01-20T12:00:32.699Z,4.82
2023-01-20T12:03:10.365Z,5.32
2023-01-20T12:05:58.866Z,5.35
2023-01-20T12:08:31.755Z,5.10
2023-01-20T12:11:03.525Z,5.30
2023-01-20T12:13:59.410Z,5.95
2023-01-20T12:16:29.984Z,5.85
2023-01-20T12:19:06.611Z,6.75
2023-01-20T12:21:46.703Z,6.63
2023-01-20T12:25:01.844Z,6.43
2023-01-20T12:27:30.373Z,5.60
2023-01-20T12:30:05.818Z,5.18
2023-01-20T12:32:40.377Z,5.70
2023-01-20T12:35:14.646Z,5.93
2023-01-20T12:37:46.973Z,6.20
2023-01-20T12:40:23.135Z,5.88
2023-01-20T12:42:56.599Z,5.95
2023-01-20T12:45:40.625Z,5.55
2023-01-20T12:48:16.860Z,5.93
2023-01-20T12:50:46.897Z,6.07
2023-01-20T12:53:20.119Z,6.93
2023-01-20T12:59:06.180Z,5.78
2023-01-20T13:01:55.188Z,5.63
2023-01-20T13:04:37.206Z,5.63
2023-01-20T13:07:16.543Z,5.13
2023-01-20T13:10:05.478Z,5.50
2023-01-20T13:12:47.983Z,4.78
2023-01-20T13:15:32.912Z,4.82
2023-01-20T13:18:25.130Z,4.70
2023-01-20T13:20:56.838Z,4.30
2023-01-20T13:23:31.116Z,4.53
2023-01-20T13:26:01.808Z,4.57
2023-01-20T13:28:32.334Z,3.78
2023-01-20T13:31:04.827Z,4.75
2023-01-20T13:33:40.470Z,5.07
2023-01-20T13:36:15.804Z,4.70
2023-01-20T13:38:43.786Z,4.53
2023-01-20T13:41:11.604Z,4.53
2023-01-20T13:43:45.734Z,4.32
2023-01-20T13:46:17.019Z,4.15
2023-01-20T13:49:13.291Z,4.03
2023-01-20T13:51:45.761Z,4.07
2023-01-20T13:54:25.528Z,5.93
2023-01-20T13:56:53.186Z,5.57
2023-01-20T13:59:20.446Z,4.75
2023-01-20T14:01:47.824Z,4.03
2023-01-20T14:04:19.725Z,4.10
2023-01-20T14:06:48.999Z,4.20
2023-01-20T14:09:24.840Z,3.40
2023-01-20T14:11:54.740Z,3.72
2023-01-20T14:14:25.006Z,4.07
2023-01-20T14:16:52.807Z,3.78
2023-01-20T14:19:34.859Z,3.75
2023-01-20T14:22:26.134Z,3.17
2023-01-20T14:25:00.906Z,3.65
2023-01-20T14:27:33.568Z,4.00
2023-01-20T14:30:26.755Z,5.32
2023-01-20T14:32:54.374Z,4.88
2023-01-20T14:35:28.049Z,4.13
2023-01-20T14:37:57.932Z,4.40
2023-01-20T14:40:31.448Z,4.80
2023-01-20T14:43:00.933Z,5.15
2023-01-20T14:45:36.091Z,4.43
2023-01-20T14:48:05.418Z,3.80
2023-01-20T14:50:33.770Z,4.10
2023-01-20T14:53:07.317Z,3.92
2023-01-20T14:55:43.426Z,3.80
2023-01-20T14:58:17.260Z,4.10
2023-01-20T15:00:49.507Z,3.95
2023-01-20T15:03:28.747Z,3.80
2023-01-20T15:05:58.356Z,4.30
2023-01-20T15:08:32.769Z,4.30
2023-01-20T15:11:21.640Z,4.32
2023-01-20T15:13:57.291Z,4.75
2023-01-20T15:16:26.167Z,5.20
2023-01-20T15:19:15.384Z,5.00
2023-01-20T15:21:51.505Z,5.72
2023-01-20T15:24:30.761Z,5.90
2023-01-20T15:27:00.675Z,5.65
2023-01-20T15:29:32.541Z,5.80
2023-01-20T15:32:02.036Z,5.22
2023-01-20T15:34:29.763Z,5.10
2023-01-20T15:36:57.322Z,4.80
2023-01-20T15:39:29.149Z,5.32
2023-01-20T15:41:57.643Z,5.25
2023-01-20T15:44:26.158Z,7.22
2023-01-20T15:46:57.845Z,4.80
2023-01-20T15:49:25.609Z,4.40
2023-01-20T15:51:53.102Z,4.93
2023-01-20T15:54:22.984Z,5.57
2023-01-20T15:56:50.419Z,3.25
2023-01-20T15:59:25.881Z,5.10
2023-01-20T16:01:55.665Z,6.32
2023-01-20T16:04:28.778Z,5.18
2023-01-20T16:06:56.132Z,5.63
2023-01-20T16:09:26.465Z,4.60
2023-01-20T16:11:59.429Z,3.22
2023-01-20T16:14:28.902Z,3.90
2023-01-20T16:16:58.599Z,3.65
2023-01-20T16:19:25.891Z,4.85
2023-01-20T16:21:53.182Z,4.78
2023-01-20T16:24:22.923Z,3.55
2023-01-20T16:26:52.726Z,3.95
2023-01-20T16:29:22.344Z,4.13
2023-01-20T16:31:51.847Z,4.90
2023-01-20T16:34:21.654Z,4.90
2023-01-20T16:36:48.958Z,3.35
2023-01-20T16:39:16.243Z,4.13
2023-01-20T16:41:48.838Z,4.85
2023-01-20T16:44:20.504Z,4.10
2023-01-20T16:46:50.047Z,3.75
2023-01-20T16:49:17.961Z,4.85
2023-01-20T16:51:45.213Z,6.28
2023-01-20T16:54:14.870Z,3.65
2023-01-20T16:56:44.267Z,3.20
2023-01-20T16:59:11.584Z,3.22
2023-01-20T17:01:41.171Z,2.88
2023-01-20T17:04:13.124Z,2.90
2023-01-20T17:06:41.138Z,3.05
2023-01-20T17:09:08.429Z,3.72
2023-01-20T17:11:37.701Z,2.83
2023-01-20T17:14:11.619Z,2.97
2023-01-20T17:16:39.711Z,2.40
2023-01-20T17:19:07.113Z,2.63
2023-01-20T17:21:38.218Z,2.40
2023-01-20T17:24:09.276Z,2.33
2023-01-20T17:26:37.897Z,3.00
2023-01-20T17:29:05.515Z,3.30
2023-01-20T17:31:36.495Z,5.57
2023-01-20T17:34:04.645Z,4.88
2023-01-20T17:36:34.782Z,4.93
2023-01-20T17:39:05.103Z,5.10
2023-01-20T17:41:35.761Z,5.97
2023-01-20T17:44:04.075Z,4.50
2023-01-20T17:46:33.719Z,4.20
2023-01-20T17:49:06.852Z,5.55
2023-01-20T17:51:36.633Z,7.25
2023-01-20T17:54:04.357Z,5.55
2023-01-20T17:56:34.373Z,5.63
2023-01-20T17:59:01.695Z,5.47
2023-01-20T18:01:32.907Z,5.55
2023-01-20T18:04:01.315Z,4.78
2023-01-20T18:06:34.972Z,5.13
2023-01-20T18:09:02.428Z,5.25
2023-01-20T18:11:35.259Z,4.90
2023-01-20T18:14:04.078Z,5.88
2023-01-20T18:16:34.594Z,6.55
2023-01-20T18:19:05.109Z,7.25
2023-01-20T18:21:34.892Z,7.82
2023-01-20T18:24:08.312Z,6.75
2023-01-20T18:26:37.642Z,7.30
2023-01-20T18:29:10.391Z,7.47
2023-01-20T18:31:37.727Z,7.30
2023-01-20T18:34:06.993Z,7.00
2023-01-20T18:36:36.992Z,6.53
2023-01-20T18:39:18.166Z,7.53
2023-01-20T18:41:45.808Z,6.70
2023-01-20T18:44:13.581Z,7.50
2023-01-20T18:46:41.204Z,7.32
2023-01-20T18:49:14.133Z,7.50
2023-01-20T18:51:44.178Z,7.63
2023-01-20T18:54:15.044Z,8.02
2023-01-20T18:56:42.399Z,8.02
2023-01-20T18:59:11.497Z,8.25
2023-01-20T19:01:40.160Z,8.55
2023-01-20T19:04:10.038Z,9.80
2023-01-20T19:06:42.195Z,9.95
2023-01-20T19:09:10.491Z,10.30
2023-01-20T19:11:39.931Z,10.80
2023-01-20T19:14:13.635Z,12.45
2023-01-20T19:16:45.330Z,13.77
2023-01-20T19:19:13.996Z,15.68
2023-01-20T19:21:41.529Z,16.52
2023-01-20T19:24:15.949Z,16.85
2023-01-20T19:26:43.473Z,18.05
2023-01-20T19:29:15.827Z,18.92
2023-01-20T19:31:43.735Z,19.30
2023-01-20T19:34:11.635Z,19.50
2023-01-20T19:36:39.256Z,18.98
2023-01-20T19:39:08.792Z,21.02
2023-01-20T19:41:36.610Z,20.45
2023-01-20T19:44:06.561Z,21.23
2023-01-20T19:46:37.549Z,22.38
2023-01-20T19:49:07.007Z,20.10
2023-01-20T19:51:34.351Z,18.65
2023-01-20T19:54:04.683Z,17.30
2023-01-20T19:56:37.775Z,18.40
2023-01-20T19:59:06.083Z,16.30
2023-01-20T20:01:37.649Z,15.27
2023-01-20T20:04:09.933Z,14.23
2023-01-20T20:06:46.230Z,10.60
2023-01-20T20:09:23.448Z,12.15
2023-01-20T20:11:51.113Z,12.70
2023-01-20T20:14:20.889Z,12.75
2023-01-20T20:16:48.417Z,12.40
2023-01-20T20:19:18.846Z,12.50
2023-01-20T20:21:48.526Z,11.75
2023-01-20T20:24:18.165Z,12.55
2023-01-20T20:26:46.332Z,12.27
2023-01-20T20:29:16.338Z,12.20
2023-01-20T20:31:46.912Z,12.90
2023-01-20T20:34:18.784Z,14.15
2023-01-20T20:36:46.330Z,13.85
2023-01-20T20:39:15.326Z,13.80
2023-01-20T20:41:45.844Z,15.70
2023-01-20T20:44:16.447Z,14.88
2023-01-20T20:46:43.847Z,14.73
2023-01-20T20:49:16.338Z,15.40
2023-01-20T20:51:46.126Z,15.60
2023-01-20T20:54:15.328Z,15.13
2023-01-20T20:56:43.625Z,15.85
2023-01-20T20:59:11.046Z,15.13
2023-01-20T21:01:38.683Z,15.05
2023-01-20T21:04:06.048Z,14.57
2023-01-20T21:06:35.813Z,15.00
2023-01-20T21:09:03.214Z,15.75
2023-01-20T21:11:30.622Z,15.32
2023-01-20T21:13:58.466Z,15.18
2023-01-20T21:16:26.447Z,15.15
2023-01-20T21:18:59.211Z,15.30
2023-01-20T21:21:29.179Z,14.32
2023-01-20T21:23:58.723Z,14.52
2023-01-20T21:26:29.960Z,14.13
2023-01-20T21:29:03.789Z,15.98
2023-01-20T21:31:31.845Z,14.75
2023-01-20T21:34:02.062Z,15.77
2023-01-20T21:36:32.301Z,15.10
2023-01-20T21:39:02.515Z,14.95
2023-01-20T21:41:31.968Z,14.32
2023-01-20T21:44:18.133Z,14.40
2023-01-20T21:46:49.356Z,14.45
2023-01-20T21:49:37.545Z,14.48
2023-01-20T21:52:31.307Z,13.68
2023-01-20T21:57:32.557Z,14.40
2023-01-20T22:00:01.133Z,15.65
2023-01-20T22:02:31.006Z,14.50
2023-01-20T22:05:00.434Z,14.73
2023-01-20T22:07:27.943Z,16.20
2023-01-20T22:09:57.906Z,15.07
2023-01-20T22:12:25.506Z,14.98
2023-01-20T22:14:52.749Z,15.55
2023-01-20T22:17:22.155Z,15.68
2023-01-20T22:19:51.492Z,15.50
2023-01-20T22:22:19.749Z,15.48
2023-01-20T22:24:46.988Z,16.25
2023-01-20T22:27:14.378Z,16.17
2023-01-20T22:29:41.637Z,15.98
2023-01-20T22:32:09.238Z,16.92
2023-01-20T22:34:36.564Z,16.23
2023-01-20T22:37:06.366Z,16.38
2023-01-20T22:39:33.606Z,16.60
2023-01-20T22:42:04.002Z,17.15
2023-01-20T22:44:31.322Z,17.17
2023-01-20T22:46:58.569Z,16.50
2023-01-20T22:49:29.936Z,16.75
2023-01-20T22:51:57.182Z,16.85
2023-01-20T22:54:24.433Z,16.75
2023-01-20T22:56:56.890Z,17.23
2023-01-20T22:59:24.211Z,16.35
2023-01-20T23:01:51.546Z,16.38
2023-01-20T23:04:21.327Z,17.58
2023-01-20T23:06:50.729Z,16.70
2023-01-20T23:09:20.277Z,16.38
2023-01-20T23:11:50.220Z,15.95
2023-01-20T23:14:37.540Z,18.10
2023-01-20T23:17:07.175Z,16.60
2023-01-20T23:19:37.025Z,17.45
2023-01-20T23:22:06.411Z,16.33
2023-01-20T23:24:36.030Z,22.02
2023-01-20T23:27:03.379Z,25.60
2023-01-20T23:29:30.645Z,19.55
2023-01-20T23:32:00.185Z,20.33
2023-01-20T23:34:27.483Z,17.48
2023-01-20T23:36:57.306Z,17.15
2023-01-20T23:39:24.585Z,16.60
2023-01-20T23:41:54.930Z,17.52
2023-01-20T23:44:22.180Z,17.30
2023-01-20T23:46:54.196Z,18.20
2023-01-20T23:49:25.903Z,17.88
2023-01-20T23:51:55.631Z,17.00
2023-01-20T23:54:22.885Z,16.52
2023-01-20T23:56:50.193Z,16.27
2023-01-20T23:59:17.473Z,17.15
